PCM7697 KRDD-KSMF
Flight info
| Callsign | PCM7697 |
|---|---|
| Flight time | 0h 44m |
| Altitude | 7000 |
| Route | RBL V23 GRIME EYPOF |
| Aircraft | C208/L-SDFGR/C |
Departure
| Time | 2026-04-21 16:41 |
|---|---|
| Airport | Redding Municipal Airport (KRDD) |
Arrival
| Time | 2026-04-21 17:25 |
|---|---|
| Airport | Sacramento International Airport (KSMF) |
| Time | Latitude | Longitude | Altitude | Speed | Heading |
|---|---|---|---|---|---|
| 2026-04-21 16:29 | 40.50294 | -122.29897 | 502 ft | 0 kts | 1° |
| 2026-04-21 16:29 | 40.50304 | -122.29897 | 502 ft | 4 kts | 1° |
| 2026-04-21 16:30 | 40.50325 | -122.29893 | 502 ft | 7 kts | 19° |
| 2026-04-21 16:30 | 40.50383 | -122.29839 | 502 ft | 14 kts | 36° |
| 2026-04-21 16:30 | 40.50485 | -122.29831 | 502 ft | 13 kts | 353° |
| 2026-04-21 16:30 | 40.50585 | -122.29845 | 502 ft | 14 kts | 353° |
| 2026-04-21 16:31 | 40.50670 | -122.29857 | 502 ft | 13 kts | 353° |
| 2026-04-21 16:31 | 40.50767 | -122.29815 | 502 ft | 17 kts | 45° |
| 2026-04-21 16:31 | 40.50862 | -122.29692 | 502 ft | 21 kts | 43° |
| 2026-04-21 16:31 | 40.50974 | -122.29633 | 503 ft | 18 kts | 0° |
| 2026-04-21 16:32 | 40.51124 | -122.29632 | 501 ft | 26 kts | 358° |
| 2026-04-21 16:32 | 40.51294 | -122.29631 | 502 ft | 21 kts | 0° |
| 2026-04-21 16:32 | 40.51440 | -122.29631 | 502 ft | 22 kts | 1° |
| 2026-04-21 16:32 | 40.51588 | -122.29630 | 502 ft | 21 kts | 360° |
| 2026-04-21 16:33 | 40.51722 | -122.29629 | 502 ft | 19 kts | 360° |
| 2026-04-21 16:33 | 40.51823 | -122.29627 | 502 ft | 14 kts | 1° |
| 2026-04-21 16:33 | 40.51917 | -122.29628 | 502 ft | 14 kts | 359° |
| 2026-04-21 16:33 | 40.52014 | -122.29613 | 503 ft | 9 kts | 43° |
| 2026-04-21 16:34 | 40.52024 | -122.29589 | 503 ft | 0 kts | 80° |
| 2026-04-21 16:38 | 40.52024 | -122.29590 | 503 ft | 0 kts | 80° |
| 2026-04-21 16:39 | 40.52024 | -122.29587 | 503 ft | 2 kts | 81° |
| 2026-04-21 16:40 | 40.52024 | -122.29535 | 503 ft | 10 kts | 103° |
| 2026-04-21 16:40 | 40.51963 | -122.29486 | 502 ft | 14 kts | 180° |
| 2026-04-21 16:40 | 40.51717 | -122.29487 | 502 ft | 59 kts | 180° |
| 2026-04-21 16:40 | 40.51178 | -122.29487 | 535 ft | 90 kts | 180° |
| 2026-04-21 16:41 | 40.50748 | -122.29498 | 646 ft | 95 kts | 181° |
| 2026-04-21 16:41 | 40.49870 | -122.29513 | 967 ft | 92 kts | 179° |
| 2026-04-21 16:41 | 40.49232 | -122.29466 | 1181 ft | 93 kts | 174° |
| 2026-04-21 16:41 | 40.48589 | -122.29397 | 1410 ft | 93 kts | 175° |
| 2026-04-21 16:42 | 40.47914 | -122.29316 | 1520 ft | 109 kts | 175° |
| 2026-04-21 16:42 | 40.47110 | -122.29255 | 1685 ft | 120 kts | 176° |
| 2026-04-21 16:42 | 40.46272 | -122.29178 | 1954 ft | 120 kts | 171° |
| 2026-04-21 16:42 | 40.45468 | -122.28959 | 2262 ft | 116 kts | 168° |
| 2026-04-21 16:43 | 40.44683 | -122.28797 | 2549 ft | 116 kts | 172° |
| 2026-04-21 16:43 | 40.43888 | -122.28654 | 2832 ft | 117 kts | 173° |
| 2026-04-21 16:43 | 40.43079 | -122.28527 | 3115 ft | 117 kts | 172° |
| 2026-04-21 16:43 | 40.42266 | -122.28401 | 3395 ft | 118 kts | 173° |
| 2026-04-21 16:44 | 40.41448 | -122.28278 | 3674 ft | 118 kts | 174° |
| 2026-04-21 16:44 | 40.40628 | -122.28156 | 3951 ft | 119 kts | 174° |
| 2026-04-21 16:44 | 40.39805 | -122.28036 | 4226 ft | 119 kts | 174° |
| 2026-04-21 16:44 | 40.38984 | -122.27913 | 4503 ft | 119 kts | 174° |
| 2026-04-21 16:45 | 40.38163 | -122.27791 | 4775 ft | 118 kts | 174° |
| 2026-04-21 16:45 | 40.37346 | -122.27672 | 5048 ft | 118 kts | 174° |
| 2026-04-21 16:45 | 40.36532 | -122.27550 | 5321 ft | 117 kts | 174° |
| 2026-04-21 16:45 | 40.35724 | -122.27430 | 5586 ft | 117 kts | 173° |
| 2026-04-21 16:46 | 40.34916 | -122.27310 | 5868 ft | 117 kts | 174° |
| 2026-04-21 16:46 | 40.34113 | -122.27191 | 6132 ft | 116 kts | 174° |
| 2026-04-21 16:46 | 40.33313 | -122.27072 | 6401 ft | 115 kts | 173° |
| 2026-04-21 16:46 | 40.32786 | -122.26994 | 6580 ft | 114 kts | 174° |
| 2026-04-21 16:47 | 40.32001 | -122.26877 | 6848 ft | 113 kts | 173° |
| 2026-04-21 16:47 | 40.31207 | -122.26760 | 7020 ft | 121 kts | 174° |
| 2026-04-21 16:47 | 40.30304 | -122.26639 | 7039 ft | 139 kts | 174° |
| 2026-04-21 16:47 | 40.29289 | -122.26507 | 7041 ft | 153 kts | 174° |
| 2026-04-21 16:48 | 40.28200 | -122.26357 | 7037 ft | 161 kts | 174° |
| 2026-04-21 16:48 | 40.27066 | -122.26193 | 7043 ft | 166 kts | 174° |
| 2026-04-21 16:48 | 40.25905 | -122.26022 | 7045 ft | 169 kts | 174° |
| 2026-04-21 16:48 | 40.24727 | -122.25849 | 7043 ft | 171 kts | 174° |
| 2026-04-21 16:49 | 40.23540 | -122.25674 | 7039 ft | 172 kts | 174° |
| 2026-04-21 16:49 | 40.22349 | -122.25499 | 7043 ft | 172 kts | 174° |
| 2026-04-21 16:49 | 40.21158 | -122.25323 | 7041 ft | 172 kts | 174° |
| 2026-04-21 16:49 | 40.19964 | -122.25148 | 7040 ft | 173 kts | 174° |
| 2026-04-21 16:50 | 40.18767 | -122.24973 | 7040 ft | 173 kts | 174° |
| 2026-04-21 16:50 | 40.17569 | -122.24798 | 7038 ft | 173 kts | 174° |
| 2026-04-21 16:50 | 40.16371 | -122.24621 | 7037 ft | 174 kts | 174° |
| 2026-04-21 16:50 | 40.15169 | -122.24446 | 7036 ft | 174 kts | 174° |
| 2026-04-21 16:51 | 40.13968 | -122.24270 | 7035 ft | 174 kts | 174° |
| 2026-04-21 16:51 | 40.12765 | -122.24094 | 7033 ft | 174 kts | 174° |
| 2026-04-21 16:51 | 40.11564 | -122.23920 | 7032 ft | 174 kts | 174° |
| 2026-04-21 16:51 | 40.10359 | -122.23743 | 7030 ft | 174 kts | 174° |
| 2026-04-21 16:52 | 40.09213 | -122.23347 | 7025 ft | 174 kts | 157° |
| 2026-04-21 16:52 | 40.08105 | -122.22731 | 7023 ft | 173 kts | 159° |
| 2026-04-21 16:52 | 40.06986 | -122.22148 | 7023 ft | 173 kts | 159° |
| 2026-04-21 16:52 | 40.05867 | -122.21562 | 7024 ft | 174 kts | 159° |
| 2026-04-21 16:53 | 40.04748 | -122.20974 | 7023 ft | 173 kts | 159° |
| 2026-04-21 16:53 | 40.03628 | -122.20387 | 7024 ft | 174 kts | 159° |
| 2026-04-21 16:53 | 40.02508 | -122.19799 | 7022 ft | 174 kts | 159° |
| 2026-04-21 16:53 | 40.01386 | -122.19211 | 7023 ft | 174 kts | 159° |
| 2026-04-21 16:54 | 40.00268 | -122.18624 | 7025 ft | 173 kts | 159° |
| 2026-04-21 16:54 | 39.99150 | -122.18037 | 7022 ft | 173 kts | 159° |
| 2026-04-21 16:54 | 39.98028 | -122.17450 | 7023 ft | 174 kts | 159° |
| 2026-04-21 16:54 | 39.96909 | -122.16862 | 7023 ft | 173 kts | 159° |
| 2026-04-21 16:55 | 39.95787 | -122.16276 | 7024 ft | 173 kts | 159° |
| 2026-04-21 16:55 | 39.94667 | -122.15689 | 7034 ft | 173 kts | 159° |
| 2026-04-21 16:55 | 39.93549 | -122.15103 | 7032 ft | 173 kts | 159° |
| 2026-04-21 16:55 | 39.92432 | -122.14518 | 7033 ft | 174 kts | 159° |
| 2026-04-21 16:56 | 39.91310 | -122.13932 | 7033 ft | 174 kts | 159° |
| 2026-04-21 16:56 | 39.90190 | -122.13344 | 7032 ft | 173 kts | 159° |
| 2026-04-21 16:56 | 39.89068 | -122.12757 | 7033 ft | 175 kts | 159° |
| 2026-04-21 16:56 | 39.87945 | -122.12171 | 7032 ft | 174 kts | 159° |
| 2026-04-21 16:57 | 39.86825 | -122.11587 | 7032 ft | 173 kts | 159° |
| 2026-04-21 16:57 | 39.85706 | -122.11003 | 7033 ft | 173 kts | 159° |
| 2026-04-21 16:57 | 39.84604 | -122.10427 | 7033 ft | 173 kts | 159° |
| 2026-04-21 16:57 | 39.83485 | -122.09844 | 7032 ft | 173 kts | 159° |
| 2026-04-21 16:58 | 39.82365 | -122.09260 | 7033 ft | 174 kts | 159° |
| 2026-04-21 16:58 | 39.81240 | -122.08675 | 7032 ft | 174 kts | 159° |
| 2026-04-21 16:58 | 39.80118 | -122.08091 | 7032 ft | 174 kts | 159° |
| 2026-04-21 16:58 | 39.78997 | -122.07504 | 7033 ft | 174 kts | 159° |
| 2026-04-21 16:59 | 39.77875 | -122.06920 | 7036 ft | 173 kts | 159° |
| 2026-04-21 16:59 | 39.76756 | -122.06337 | 7043 ft | 174 kts | 159° |
| 2026-04-21 16:59 | 39.75635 | -122.05754 | 7040 ft | 174 kts | 159° |
| 2026-04-21 16:59 | 39.74508 | -122.05168 | 7041 ft | 174 kts | 159° |
| 2026-04-21 17:00 | 39.73384 | -122.04583 | 7043 ft | 174 kts | 159° |
| 2026-04-21 17:00 | 39.72260 | -122.03999 | 7041 ft | 174 kts | 159° |
| 2026-04-21 17:00 | 39.71520 | -122.03614 | 7042 ft | 173 kts | 159° |
| 2026-04-21 17:00 | 39.70022 | -122.02836 | 7042 ft | 173 kts | 159° |
| 2026-04-21 17:01 | 39.68905 | -122.02253 | 7043 ft | 173 kts | 159° |
| 2026-04-21 17:01 | 39.67789 | -122.01675 | 7041 ft | 173 kts | 159° |
| 2026-04-21 17:01 | 39.66673 | -122.01098 | 7042 ft | 172 kts | 159° |
| 2026-04-21 17:01 | 39.65560 | -122.00520 | 7043 ft | 172 kts | 159° |
| 2026-04-21 17:02 | 39.64443 | -121.99940 | 7041 ft | 173 kts | 159° |
| 2026-04-21 17:02 | 39.63328 | -121.99360 | 7042 ft | 173 kts | 159° |
| 2026-04-21 17:02 | 39.62209 | -121.98781 | 7043 ft | 173 kts | 159° |
| 2026-04-21 17:02 | 39.61092 | -121.98205 | 7041 ft | 172 kts | 159° |
| 2026-04-21 17:03 | 39.59981 | -121.97628 | 7041 ft | 172 kts | 159° |
| 2026-04-21 17:03 | 39.58867 | -121.97051 | 7041 ft | 172 kts | 159° |
| 2026-04-21 17:03 | 39.57754 | -121.96475 | 7042 ft | 172 kts | 159° |
| 2026-04-21 17:03 | 39.56639 | -121.95898 | 7043 ft | 173 kts | 159° |
| 2026-04-21 17:04 | 39.55524 | -121.95321 | 7041 ft | 173 kts | 159° |
| 2026-04-21 17:04 | 39.54409 | -121.94744 | 7043 ft | 172 kts | 159° |
| 2026-04-21 17:04 | 39.53295 | -121.94168 | 7041 ft | 172 kts | 160° |
| 2026-04-21 17:04 | 39.52180 | -121.93593 | 7041 ft | 172 kts | 160° |
| 2026-04-21 17:05 | 39.51067 | -121.93018 | 7041 ft | 172 kts | 160° |
| 2026-04-21 17:05 | 39.49955 | -121.92444 | 7041 ft | 172 kts | 160° |
| 2026-04-21 17:05 | 39.48845 | -121.91870 | 7041 ft | 172 kts | 160° |
| 2026-04-21 17:05 | 39.47736 | -121.91298 | 7053 ft | 171 kts | 160° |
| 2026-04-21 17:06 | 39.46625 | -121.90725 | 7050 ft | 172 kts | 159° |
| 2026-04-21 17:06 | 39.45511 | -121.90150 | 7052 ft | 172 kts | 160° |
| 2026-04-21 17:06 | 39.44413 | -121.89584 | 7051 ft | 172 kts | 160° |
| 2026-04-21 17:06 | 39.43301 | -121.89011 | 7052 ft | 172 kts | 160° |
| 2026-04-21 17:07 | 39.42187 | -121.88436 | 7052 ft | 172 kts | 160° |
| 2026-04-21 17:07 | 39.41073 | -121.87863 | 7051 ft | 172 kts | 160° |
| 2026-04-21 17:07 | 39.39961 | -121.87291 | 7050 ft | 172 kts | 160° |
| 2026-04-21 17:07 | 39.38846 | -121.86721 | 7053 ft | 173 kts | 160° |
| 2026-04-21 17:08 | 39.37729 | -121.86149 | 7050 ft | 172 kts | 160° |
| 2026-04-21 17:08 | 39.36619 | -121.85576 | 7050 ft | 172 kts | 160° |
| 2026-04-21 17:08 | 39.35514 | -121.85011 | 7053 ft | 170 kts | 160° |
| 2026-04-21 17:08 | 39.34414 | -121.84444 | 7051 ft | 170 kts | 160° |
| 2026-04-21 17:09 | 39.32204 | -121.83395 | 7056 ft | 169 kts | 168° |
| 2026-04-21 17:09 | 39.31059 | -121.83041 | 7054 ft | 169 kts | 167° |
| 2026-04-21 17:09 | 39.29919 | -121.82672 | 7051 ft | 170 kts | 167° |
| 2026-04-21 17:10 | 39.28770 | -121.82289 | 7051 ft | 170 kts | 167° |
| 2026-04-21 17:10 | 39.27620 | -121.81916 | 7052 ft | 171 kts | 167° |
| 2026-04-21 17:10 | 39.26471 | -121.81551 | 7050 ft | 169 kts | 167° |
| 2026-04-21 17:10 | 39.25328 | -121.81176 | 7054 ft | 170 kts | 167° |
| 2026-04-21 17:11 | 39.24184 | -121.80799 | 7050 ft | 170 kts | 167° |
| 2026-04-21 17:11 | 39.23041 | -121.80427 | 7053 ft | 170 kts | 167° |
| 2026-04-21 17:11 | 39.21890 | -121.80060 | 7052 ft | 170 kts | 167° |
| 2026-04-21 17:11 | 39.20735 | -121.79687 | 7053 ft | 171 kts | 167° |
| 2026-04-21 17:12 | 39.19576 | -121.79310 | 7052 ft | 173 kts | 167° |
| 2026-04-21 17:12 | 39.18408 | -121.78927 | 7053 ft | 173 kts | 168° |
| 2026-04-21 17:12 | 39.17249 | -121.78552 | 7051 ft | 171 kts | 167° |
| 2026-04-21 17:12 | 39.16094 | -121.78182 | 7054 ft | 171 kts | 167° |
| 2026-04-21 17:13 | 39.14938 | -121.77807 | 7051 ft | 171 kts | 168° |
| 2026-04-21 17:13 | 39.13786 | -121.77435 | 7050 ft | 170 kts | 168° |
| 2026-04-21 17:13 | 39.12638 | -121.77062 | 7052 ft | 169 kts | 168° |
| 2026-04-21 17:13 | 39.11495 | -121.76693 | 7053 ft | 170 kts | 168° |
| 2026-04-21 17:14 | 39.10329 | -121.76328 | 6911 ft | 177 kts | 168° |
| 2026-04-21 17:14 | 39.09109 | -121.75932 | 6664 ft | 184 kts | 167° |
| 2026-04-21 17:14 | 39.07912 | -121.75540 | 6404 ft | 166 kts | 168° |
| 2026-04-21 17:14 | 39.06836 | -121.75186 | 6129 ft | 154 kts | 167° |
| 2026-04-21 17:15 | 39.05817 | -121.74843 | 5859 ft | 149 kts | 168° |
| 2026-04-21 17:15 | 39.04824 | -121.74523 | 5595 ft | 146 kts | 168° |
| 2026-04-21 17:15 | 39.03839 | -121.74206 | 5335 ft | 145 kts | 168° |
| 2026-04-21 17:15 | 39.02864 | -121.73893 | 5081 ft | 144 kts | 168° |
| 2026-04-21 17:16 | 39.01906 | -121.73586 | 4831 ft | 143 kts | 167° |
| 2026-04-21 17:16 | 39.00958 | -121.73185 | 4574 ft | 144 kts | 157° |
| 2026-04-21 17:16 | 39.00048 | -121.72616 | 4320 ft | 143 kts | 156° |
| 2026-04-21 17:16 | 38.99164 | -121.72066 | 4072 ft | 144 kts | 156° |
| 2026-04-21 17:17 | 38.98270 | -121.71514 | 3823 ft | 142 kts | 156° |
| 2026-04-21 17:17 | 38.97373 | -121.70965 | 3568 ft | 143 kts | 156° |
| 2026-04-21 17:17 | 38.96473 | -121.70415 | 3324 ft | 143 kts | 156° |
| 2026-04-21 17:17 | 38.95590 | -121.69819 | 3081 ft | 144 kts | 144° |
| 2026-04-21 17:18 | 38.94920 | -121.68949 | 3051 ft | 131 kts | 135° |
| 2026-04-21 17:18 | 38.94293 | -121.68089 | 3055 ft | 136 kts | 136° |
| 2026-04-21 17:18 | 38.93609 | -121.67172 | 2970 ft | 147 kts | 136° |
| 2026-04-21 17:18 | 38.92897 | -121.66217 | 2856 ft | 149 kts | 135° |
| 2026-04-21 17:19 | 38.92188 | -121.65244 | 2741 ft | 148 kts | 135° |
| 2026-04-21 17:19 | 38.91455 | -121.64327 | 2617 ft | 148 kts | 143° |
| 2026-04-21 17:19 | 38.90606 | -121.63591 | 2492 ft | 147 kts | 152° |
| 2026-04-21 17:19 | 38.89698 | -121.62985 | 2369 ft | 147 kts | 153° |
| 2026-04-21 17:20 | 38.88790 | -121.62383 | 2245 ft | 147 kts | 153° |
| 2026-04-21 17:20 | 38.87885 | -121.61781 | 2119 ft | 146 kts | 153° |
| 2026-04-21 17:20 | 38.86988 | -121.61184 | 2064 ft | 142 kts | 153° |
| 2026-04-21 17:20 | 38.86125 | -121.60605 | 2056 ft | 139 kts | 153° |
| 2026-04-21 17:21 | 38.85245 | -121.60143 | 2054 ft | 135 kts | 162° |
| 2026-04-21 17:21 | 38.84323 | -121.59971 | 2052 ft | 133 kts | 178° |
| 2026-04-21 17:21 | 38.83422 | -121.59934 | 2051 ft | 126 kts | 178° |
| 2026-04-21 17:21 | 38.82556 | -121.59923 | 2050 ft | 123 kts | 178° |
| 2026-04-21 17:22 | 38.81985 | -121.59914 | 2052 ft | 126 kts | 179° |
| 2026-04-21 17:22 | 38.80790 | -121.59942 | 2000 ft | 133 kts | 180° |
| 2026-04-21 17:22 | 38.79827 | -121.59960 | 1824 ft | 141 kts | 180° |
| 2026-04-21 17:22 | 38.78879 | -121.59975 | 1636 ft | 133 kts | 179° |
| 2026-04-21 17:23 | 38.77968 | -121.59986 | 1457 ft | 129 kts | 180° |
| 2026-04-21 17:23 | 38.77070 | -121.60000 | 1291 ft | 128 kts | 180° |
| 2026-04-21 17:23 | 38.76177 | -121.60015 | 1120 ft | 128 kts | 181° |
| 2026-04-21 17:23 | 38.75288 | -121.60035 | 950 ft | 127 kts | 180° |
| 2026-04-21 17:24 | 38.74404 | -121.60048 | 783 ft | 127 kts | 180° |
| 2026-04-21 17:24 | 38.73525 | -121.60066 | 615 ft | 126 kts | 180° |
| 2026-04-21 17:24 | 38.72646 | -121.60075 | 458 ft | 126 kts | 179° |
| 2026-04-21 17:24 | 38.71798 | -121.60081 | 285 ft | 114 kts | 181° |
| 2026-04-21 17:25 | 38.71110 | -121.60106 | 146 ft | 84 kts | 181° |
| 2026-04-21 17:25 | 38.70575 | -121.60110 | 31 ft | 72 kts | 180° |
| 2026-04-21 17:25 | 38.70151 | -121.60120 | 25 ft | 45 kts | 181° |
| 2026-04-21 17:25 | 38.69906 | -121.60122 | 23 ft | 33 kts | 179° |
| 2026-04-21 17:26 | 38.69686 | -121.60127 | 20 ft | 34 kts | 181° |
| 2026-04-21 17:26 | 38.69472 | -121.60075 | 23 ft | 27 kts | 155° |
| 2026-04-21 17:26 | 38.69321 | -121.59973 | 23 ft | 20 kts | 150° |
| 2026-04-21 17:26 | 38.69232 | -121.59908 | 22 ft | 9 kts | 149° |
| 2026-04-21 17:27 | 38.69165 | -121.59874 | 22 ft | 13 kts | 174° |
| 2026-04-21 17:27 | 38.69072 | -121.59865 | 22 ft | 10 kts | 143° |
| 2026-04-21 17:27 | 38.69056 | -121.59771 | 23 ft | 13 kts | 90° |
| 2026-04-21 17:27 | 38.69056 | -121.59681 | 22 ft | 9 kts | 88° |
| 2026-04-21 17:28 | 38.69042 | -121.59657 | 23 ft | 3 kts | 221° |
| 2026-04-21 17:28 | 38.69033 | -121.59670 | 22 ft | 0 kts | 226° |